Time;durP1;ratioP1;P1;durP2;ratioP2;P2;SDS_P1;SDS_P2;PMS_P1;PMS_P2;Temp;Humidity;BMP_temperature;BMP_pressure;BME280_temperature;BME280_humidity;BME280_pressure;Samples;Min_cycle;Max_cycle;Signal;HPM_P1;HPM_P2
2022/09/30 00:01:51;;;;;;;;;;;13.90;75.90;;;;;;6119667;23;20401;-79
2022/09/30 00:04:20;;;;;;;;;;;13.90;75.90;;;;;;6120108;23;20000;-79
2022/09/30 00:06:47;;;;;;;;;;;13.90;76.20;;;;;;6095009;23;19917;-79
2022/09/30 00:09:14;;;;;;;;;;;13.80;76.00;;;;;;6120217;23;19932;-79
2022/09/30 00:11:41;;;;;;;;;;;13.80;75.80;;;;;;6119021;23;20334;-79
2022/09/30 00:14:12;;;;;;;;;;;13.90;75.50;;;;;;6095600;23;19925;-79
2022/09/30 00:16:38;;;;;;;;;;;13.90;74.90;;;;;;6119130;23;19952;-79
2022/09/30 00:19:05;;;;;;;;;;;13.90;74.90;;;;;;6119698;23;19923;-79
2022/09/30 00:21:32;;;;;;;;;;;13.90;74.10;;;;;;6095776;23;19924;-79
2022/09/30 00:24:00;;;;;;;;;;;13.90;74.50;;;;;;6120216;23;20235;-79
2022/09/30 00:26:26;;;;;;;;;;;13.90;74.40;;;;;;6119099;23;20293;-79
2022/09/30 00:28:54;;;;;;;;;;;13.90;74.30;;;;;;6119863;23;19921;-79
2022/09/30 00:31:22;;;;;;;;;;;13.90;74.30;;;;;;6120244;23;19953;-79
2022/09/30 00:34:08;;;;;;;;;;;13.90;73.40;;;;;;6119224;23;20350;-79
2022/09/30 00:36:37;;;;;;;;;;;13.90;73.30;;;;;;6119191;23;19923;-79
2022/09/30 00:39:05;;;;;;;;;;;13.90;73.80;;;;;;6119527;23;19959;-80
2022/09/30 00:41:31;;;;;;;;;;;13.90;73.90;;;;;;6119076;23;19923;-79
2022/09/30 00:43:58;;;;;;;;;;;13.90;73.40;;;;;;6119594;23;19980;-79
2022/09/30 00:46:35;;;;;;;;;;;13.90;73.40;;;;;;6118789;23;19988;-80
2022/09/30 00:49:14;;;;;;;;;;;13.90;73.20;;;;;;6118528;23;19932;-79
2022/09/30 00:51:45;;;;;;;;;;;14.00;72.60;;;;;;6118675;23;19917;-81
2022/09/30 00:54:15;;;;;;;;;;;14.00;72.70;;;;;;6119345;23;19988;-79
2022/09/30 00:56:54;;;;;;;;;;;14.10;72.40;;;;;;6118766;23;19992;-79
2022/09/30 00:59:24;;;;;;;;;;;14.10;72.70;;;;;;6096769;23;19923;-80
2022/09/30 01:01:51;;;;;;;;;;;14.10;72.60;;;;;;6119059;23;19996;-80
2022/09/30 01:04:20;;;;;;;;;;;14.10;72.20;;;;;;6119485;23;19990;-80
2022/09/30 01:06:47;;;;;;;;;;;14.00;72.50;;;;;;6118124;23;20007;-80
2022/09/30 01:09:13;;;;;;;;;;;14.10;72.10;;;;;;6119630;23;19970;-80
2022/09/30 01:11:40;;;;;;;;;;;14.10;72.30;;;;;;6118434;23;19917;-80
2022/09/30 01:14:12;;;;;;;;;;;14.00;72.10;;;;;;6119435;23;20317;-80
2022/09/30 01:16:38;;;;;;;;;;;14.00;72.30;;;;;;6095462;23;20242;-80
2022/09/30 01:19:08;;;;;;;;;;;14.00;71.80;;;;;;6095857;23;19948;-80
2022/09/30 01:21:44;;;;;;;;;;;14.10;72.00;;;;;;6116847;23;19949;-80
2022/09/30 01:24:16;;;;;;;;;;;14.10;72.20;;;;;;6118166;23;20013;-80
2022/09/30 01:26:51;;;;;;;;;;;14.10;73.40;;;;;;6116035;23;19924;-80
2022/09/30 01:29:41;;;;;;;;;;;14.10;74.60;;;;;;6117745;23;19923;-80
2022/09/30 01:32:28;;;;;;;;;;;14.00;75.50;;;;;;6116802;23;19927;-80
2022/09/30 01:35:10;;;;;;;;;;;14.00;75.00;;;;;;6083172;23;19953;-80
2022/09/30 01:37:37;;;;;;;;;;;14.00;74.20;;;;;;6117863;23;20382;-80
2022/09/30 01:40:04;;;;;;;;;;;14.00;73.70;;;;;;6116712;23;19925;-80
2022/09/30 01:42:30;;;;;;;;;;;14.00;73.50;;;;;;6117966;23;19932;-80
2022/09/30 01:45:03;;;;;;;;;;;14.00;74.50;;;;;;6094198;23;19974;-80
2022/09/30 01:47:42;;;;;;;;;;;14.00;73.60;;;;;;6117787;23;19941;-80
2022/09/30 01:50:22;;;;;;;;;;;14.00;73.70;;;;;;6094039;23;20287;-80
2022/09/30 01:53:05;;;;;;;;;;;14.10;74.40;;;;;;6117198;23;19923;-79
2022/09/30 01:55:39;;;;;;;;;;;14.10;75.80;;;;;;6118027;23;19917;-80
2022/09/30 01:58:11;;;;;;;;;;;14.00;77.20;;;;;;6116994;23;20024;-80
2022/09/30 02:00:39;;;;;;;;;;;13.90;81.20;;;;;;6117640;23;19921;-81
2022/09/30 02:03:09;;;;;;;;;;;13.90;81.70;;;;;;6117111;23;19992;-81
2022/09/30 02:05:38;;;;;;;;;;;13.80;83.90;;;;;;6117538;23;19928;-81
2022/09/30 02:08:11;;;;;;;;;;;13.70;84.50;;;;;;6117072;23;19917;-80
2022/09/30 02:10:43;;;;;;;;;;;13.60;86.40;;;;;;6117556;23;19939;-81
2022/09/30 02:13:16;;;;;;;;;;;13.50;86.00;;;;;;6093838;23;19965;-81
2022/09/30 02:15:45;;;;;;;;;;;13.60;87.10;;;;;;6117871;23;19923;-80
2022/09/30 02:18:11;;;;;;;;;;;13.50;90.30;;;;;;6116350;23;19917;-80
2022/09/30 02:20:40;;;;;;;;;;;13.40;91.10;;;;;;6066441;23;1231696;-80
2022/09/30 02:23:13;;;;;;;;;;;13.30;91.50;;;;;;6093854;23;20101;-80
2022/09/30 02:25:45;;;;;;;;;;;13.20;91.50;;;;;;6118522;23;19917;-79
2022/09/30 02:28:16;;;;;;;;;;;13.30;91.70;;;;;;6117982;23;19923;-79
2022/09/30 02:30:46;;;;;;;;;;;13.30;93.10;;;;;;6096169;23;20335;-79
2022/09/30 02:33:16;;;;;;;;;;;13.10;94.60;;;;;;6095123;23;19992;-79
2022/09/30 02:35:53;;;;;;;;;;;12.90;95.90;;;;;;6118644;23;19992;-79
2022/09/30 02:38:27;;;;;;;;;;;12.60;97.10;;;;;;6116829;23;19923;-79
2022/09/30 02:40:54;;;;;;;;;;;12.60;97.60;;;;;;6095401;23;19924;-79
2022/09/30 02:43:21;;;;;;;;;;;12.50;97.80;;;;;;6118170;23;20224;-80
2022/09/30 02:45:50;;;;;;;;;;;12.60;98.20;;;;;;6094619;23;19988;-79
2022/09/30 02:48:37;;;;;;;;;;;12.60;98.00;;;;;;6117728;23;20323;-79
2022/09/30 02:51:14;;;;;;;;;;;12.70;98.30;;;;;;6083357;23;19917;-79
2022/09/30 02:53:54;;;;;;;;;;;12.60;98.70;;;;;;6118487;23;20231;-79
2022/09/30 02:56:39;;;;;;;;;;;12.60;98.50;;;;;;6117699;23;19921;-84
2022/09/30 02:59:06;;;;;;;;;;;12.70;98.30;;;;;;6118214;23;19917;-84
2022/09/30 03:01:33;;;;;;;;;;;12.70;98.10;;;;;;6118591;23;19917;-85
2022/09/30 03:04:03;;;;;;;;;;;12.80;98.50;;;;;;6117975;23;19948;-83
2022/09/30 03:06:30;;;;;;;;;;;12.70;99.20;;;;;;6118828;23;19992;-85
2022/09/30 03:08:56;;;;;;;;;;;12.70;99.10;;;;;;6118792;23;20250;-84
2022/09/30 03:11:24;;;;;;;;;;;12.70;99.60;;;;;;6093744;23;19925;-86
2022/09/30 03:14:06;;;;;;;;;;;12.70;99.20;;;;;;6095762;23;20386;-85
2022/09/30 03:16:32;;;;;;;;;;;12.70;99.30;;;;;;6118488;23;19988;-86
2022/09/30 03:19:02;;;;;;;;;;;12.60;99.90;;;;;;6118640;23;19917;-85
2022/09/30 03:21:47;;;;;;;;;;;12.60;99.90;;;;;;6117767;23;19955;-85
2022/09/30 03:24:23;;;;;;;;;;;12.60;99.90;;;;;;6118166;23;20356;-85
2022/09/30 03:27:09;;;;;;;;;;;12.60;99.90;;;;;;6118526;23;20306;-85
2022/09/30 03:29:44;;;;;;;;;;;12.70;99.90;;;;;;6118327;23;19923;-85
2022/09/30 03:32:44;;;;;;;;;;;12.80;99.50;;;;;;6118166;23;19917;-84
2022/09/30 03:35:16;;;;;;;;;;;12.80;99.20;;;;;;6094463;23;19921;-86
2022/09/30 03:37:44;;;;;;;;;;;12.90;99.00;;;;;;6117862;23;19917;-85
2022/09/30 03:40:23;;;;;;;;;;;12.90;98.80;;;;;;6118862;23;19917;-86
2022/09/30 03:42:53;;;;;;;;;;;13.00;98.70;;;;;;6118285;23;19925;-84
2022/09/30 03:45:32;;;;;;;;;;;13.00;99.10;;;;;;6096254;23;20012;-86
2022/09/30 03:48:02;;;;;;;;;;;13.00;99.10;;;;;;6118201;23;19917;-85
2022/09/30 03:50:30;;;;;;;;;;;13.00;98.90;;;;;;6095967;23;19964;-85
2022/09/30 03:52:57;;;;;;;;;;;13.00;99.30;;;;;;6117602;23;19924;-86
2022/09/30 03:55:24;;;;;;;;;;;13.00;99.50;;;;;;6118686;23;20313;-86
2022/09/30 03:57:51;;;;;;;;;;;12.90;99.40;;;;;;6118981;23;20249;-85
2022/09/30 04:00:18;;;;;;;;;;;12.90;99.30;;;;;;6120337;23;19956;-84
2022/09/30 04:02:45;;;;;;;;;;;12.90;99.60;;;;;;6119563;23;19959;-85
2022/09/30 04:05:12;;;;;;;;;;;12.90;99.50;;;;;;6120360;23;19924;-85
2022/09/30 04:07:38;;;;;;;;;;;12.90;99.70;;;;;;6096679;23;19952;-85
2022/09/30 04:10:05;;;;;;;;;;;12.80;99.60;;;;;;6120577;23;19921;-86
2022/09/30 04:12:32;;;;;;;;;;;12.80;99.70;;;;;;6120373;23;20287;-85
2022/09/30 04:14:59;;;;;;;;;;;12.90;99.70;;;;;;6119561;23;19917;-85
2022/09/30 04:17:26;;;;;;;;;;;12.90;99.40;;;;;;6120475;23;20342;-85
2022/09/30 04:19:52;;;;;;;;;;;12.90;99.30;;;;;;6119499;23;19948;-86
2022/09/30 04:22:19;;;;;;;;;;;13.00;99.20;;;;;;6096045;23;19917;-85
2022/09/30 04:24:51;;;;;;;;;;;13.00;99.20;;;;;;6096268;23;19956;-85
2022/09/30 04:27:18;;;;;;;;;;;13.00;99.20;;;;;;6120208;23;20073;-85
2022/09/30 04:29:45;;;;;;;;;;;13.00;99.30;;;;;;6119195;23;19923;-86
2022/09/30 04:32:12;;;;;;;;;;;13.00;99.60;;;;;;6120356;23;20254;-85
2022/09/30 04:34:38;;;;;;;;;;;12.90;99.90;;;;;;6119552;23;20298;-85
2022/09/30 04:37:05;;;;;;;;;;;12.90;99.70;;;;;;6120059;23;20311;-85
2022/09/30 04:39:36;;;;;;;;;;;12.80;99.70;;;;;;6118452;23;19917;-80
2022/09/30 04:42:03;;;;;;;;;;;12.80;99.40;;;;;;6120025;23;20327;-85
2022/09/30 04:44:30;;;;;;;;;;;12.80;99.30;;;;;;6120198;23;19923;-86
2022/09/30 04:46:56;;;;;;;;;;;12.80;99.40;;;;;;6094895;23;19947;-85
2022/09/30 04:49:23;;;;;;;;;;;12.80;99.20;;;;;;6120332;23;19992;-86
2022/09/30 04:51:50;;;;;;;;;;;12.70;99.20;;;;;;6119271;23;19917;-86
2022/09/30 04:54:17;;;;;;;;;;;12.70;99.60;;;;;;6120041;23;19923;-86
2022/09/30 04:56:44;;;;;;;;;;;12.70;99.80;;;;;;6119286;23;19933;-85
2022/09/30 04:59:10;;;;;;;;;;;12.60;99.30;;;;;;6119976;23;19987;-85
2022/09/30 05:01:39;;;;;;;;;;;12.60;99.30;;;;;;6096960;23;19917;-85
2022/09/30 05:04:07;;;;;;;;;;;12.60;99.10;;;;;;6095289;23;20291;-84
2022/09/30 05:06:33;;;;;;;;;;;12.60;98.60;;;;;;6119404;23;19944;-86
2022/09/30 05:09:00;;;;;;;;;;;12.60;98.20;;;;;;6118970;23;20477;-85
2022/09/30 05:11:28;;;;;;;;;;;12.60;97.40;;;;;;6120547;23;19925;-85
2022/09/30 05:13:55;;;;;;;;;;;12.60;97.00;;;;;;6095768;23;19984;-86
2022/09/30 05:16:21;;;;;;;;;;;12.50;97.30;;;;;;6120205;23;19953;-85
2022/09/30 05:18:48;;;;;;;;;;;12.50;96.80;;;;;;6118902;23;19921;-85
2022/09/30 05:21:19;;;;;;;;;;;12.60;96.30;;;;;;6095892;23;20295;-82
2022/09/30 05:23:46;;;;;;;;;;;12.50;96.20;;;;;;6119330;23;19921;-84
2022/09/30 05:26:13;;;;;;;;;;;12.50;96.30;;;;;;6097659;23;19941;-85
2022/09/30 05:28:40;;;;;;;;;;;12.50;95.90;;;;;;6119709;23;19921;-86
2022/09/30 05:31:07;;;;;;;;;;;12.50;96.50;;;;;;6118885;23;19924;-85
2022/09/30 05:33:34;;;;;;;;;;;12.50;96.50;;;;;;6096550;23;19968;-85
2022/09/30 05:36:04;;;;;;;;;;;12.50;96.20;;;;;;6118702;23;19951;-85
2022/09/30 05:38:31;;;;;;;;;;;12.50;95.90;;;;;;6119638;23;19921;-84
2022/09/30 05:40:58;;;;;;;;;;;12.50;95.60;;;;;;6094328;23;19937;-84
2022/09/30 05:43:24;;;;;;;;;;;12.50;95.90;;;;;;6119803;23;19924;-85
2022/09/30 05:45:55;;;;;;;;;;;12.60;95.70;;;;;;6094047;23;19952;-85
2022/09/30 05:48:22;;;;;;;;;;;12.50;95.50;;;;;;6119598;23;19917;-85
2022/09/30 05:50:52;;;;;;;;;;;12.60;95.60;;;;;;6118572;23;19927;-86
2022/09/30 05:53:19;;;;;;;;;;;12.50;96.10;;;;;;6119548;23;19949;-85
2022/09/30 05:55:47;;;;;;;;;;;12.50;96.40;;;;;;6118787;23;19945;-85
2022/09/30 05:58:14;;;;;;;;;;;12.50;96.40;;;;;;6096254;23;19923;-85
2022/09/30 06:00:42;;;;;;;;;;;12.50;96.30;;;;;;6119101;23;19957;-85
2022/09/30 06:03:09;;;;;;;;;;;12.50;96.60;;;;;;6118909;23;20343;-85
2022/09/30 06:05:36;;;;;;;;;;;12.40;96.60;;;;;;6119288;23;19924;-85
2022/09/30 06:08:03;;;;;;;;;;;12.40;96.80;;;;;;6118624;23;19992;-85
2022/09/30 06:10:29;;;;;;;;;;;12.50;96.90;;;;;;6119466;23;19996;-85
2022/09/30 06:12:58;;;;;;;;;;;12.50;96.80;;;;;;6118667;23;19996;-86
2022/09/30 06:15:25;;;;;;;;;;;12.50;96.80;;;;;;6119224;23;19971;-86
2022/09/30 06:17:52;;;;;;;;;;;12.50;96.50;;;;;;6118410;23;19923;-86
2022/09/30 06:20:19;;;;;;;;;;;12.50;97.90;;;;;;6118496;23;20256;-86
2022/09/30 06:22:46;;;;;;;;;;;12.40;97.60;;;;;;6093930;23;19921;-85
2022/09/30 06:25:13;;;;;;;;;;;12.40;97.40;;;;;;6119084;23;19944;-86
2022/09/30 06:27:43;;;;;;;;;;;12.40;97.50;;;;;;6119198;23;19921;-86
2022/09/30 06:30:10;;;;;;;;;;;12.40;97.70;;;;;;6118776;23;19924;-86
2022/09/30 06:32:37;;;;;;;;;;;12.30;98.60;;;;;;6119190;23;20343;-86
2022/09/30 06:35:04;;;;;;;;;;;12.30;98.60;;;;;;6118147;23;19944;-87
2022/09/30 06:37:30;;;;;;;;;;;12.40;98.60;;;;;;6118968;23;19993;-86
2022/09/30 06:39:57;;;;;;;;;;;12.40;98.60;;;;;;6118061;23;19988;-86
2022/09/30 06:42:24;;;;;;;;;;;12.50;98.20;;;;;;6118794;23;19924;-85
2022/09/30 06:44:50;;;;;;;;;;;12.50;98.00;;;;;;6094934;23;19918;-86
2022/09/30 06:47:19;;;;;;;;;;;12.60;97.80;;;;;;6118738;23;19917;-86
2022/09/30 06:49:51;;;;;;;;;;;12.70;97.80;;;;;;6117309;23;20235;-86
2022/09/30 06:52:18;;;;;;;;;;;12.80;98.70;;;;;;6118840;23;19925;-87
2022/09/30 06:54:45;;;;;;;;;;;12.80;98.70;;;;;;6118914;23;19985;-86
2022/09/30 06:57:12;;;;;;;;;;;12.80;99.70;;;;;;6118471;23;19921;-86
2022/09/30 06:59:39;;;;;;;;;;;12.90;99.70;;;;;;6118878;23;19927;-86
2022/09/30 07:02:07;;;;;;;;;;;12.90;99.90;;;;;;6117958;23;19921;-86
2022/09/30 07:04:34;;;;;;;;;;;12.90;99.90;;;;;;6118762;23;19924;-87
2022/09/30 07:07:01;;;;;;;;;;;13.00;99.90;;;;;;6117601;23;19921;-86
2022/09/30 07:09:28;;;;;;;;;;;13.00;99.60;;;;;;6119061;23;20000;-87
2022/09/30 07:11:55;;;;;;;;;;;13.10;99.20;;;;;;6121365;23;19917;-86
2022/09/30 07:14:22;;;;;;;;;;;13.00;98.00;;;;;;6120405;23;19923;-83
2022/09/30 07:16:52;;;;;;;;;;;13.10;98.80;;;;;;6121019;23;19941;-86
2022/09/30 07:19:21;;;;;;;;;;;13.10;98.60;;;;;;6095551;23;20298;-85
2022/09/30 07:21:49;;;;;;;;;;;13.20;98.40;;;;;;6118278;23;19917;-86
2022/09/30 07:24:16;;;;;;;;;;;13.20;98.20;;;;;;6117675;23;19921;-84
2022/09/30 07:26:46;;;;;;;;;;;13.10;98.10;;;;;;6118442;23;19917;-86
2022/09/30 07:29:12;;;;;;;;;;;13.10;98.20;;;;;;6117745;23;19917;-85
2022/09/30 07:31:39;;;;;;;;;;;13.10;98.60;;;;;;6119383;23;19965;-86
2022/09/30 07:34:07;;;;;;;;;;;13.10;98.80;;;;;;6119468;23;19917;-84
2022/09/30 07:36:36;;;;;;;;;;;13.00;98.70;;;;;;6120160;23;19921;-85
2022/09/30 07:39:04;;;;;;;;;;;13.10;98.80;;;;;;6119855;23;19924;-85
2022/09/30 07:41:33;;;;;;;;;;;13.10;98.80;;;;;;6119894;23;19921;-84
2022/09/30 07:44:01;;;;;;;;;;;13.20;98.50;;;;;;6119755;23;19925;-85
2022/09/30 07:46:29;;;;;;;;;;;13.30;98.60;;;;;;6120805;23;20385;-85
2022/09/30 07:49:02;;;;;;;;;;;13.40;98.50;;;;;;6119889;23;20249;-84
2022/09/30 07:51:37;;;;;;;;;;;13.40;98.80;;;;;;6120719;23;20003;-84
2022/09/30 07:54:06;;;;;;;;;;;13.40;99.40;;;;;;6119663;23;20346;-85
2022/09/30 07:56:37;;;;;;;;;;;13.40;99.00;;;;;;6120816;23;19949;-84
2022/09/30 07:59:24;;;;;;;;;;;13.40;98.70;;;;;;6116136;23;19996;-84
2022/09/30 08:01:50;;;;;;;;;;;13.50;99.20;;;;;;6120364;23;20257;-84
2022/09/30 08:04:18;;;;;;;;;;;13.50;99.10;;;;;;6097031;23;19917;-85
2022/09/30 08:06:46;;;;;;;;;;;13.50;99.10;;;;;;6097370;23;19933;-84
2022/09/30 08:09:14;;;;;;;;;;;13.60;99.10;;;;;;6118509;23;19936;-85
2022/09/30 08:11:41;;;;;;;;;;;13.70;98.60;;;;;;6120106;23;19940;-85
2022/09/30 08:14:26;;;;;;;;;;;13.60;98.20;;;;;;6119844;23;19923;-86
2022/09/30 08:16:55;;;;;;;;;;;13.70;98.60;;;;;;6119896;23;19996;-86
2022/09/30 08:19:23;;;;;;;;;;;13.80;98.10;;;;;;6119579;23;19933;-87
2022/09/30 08:21:52;;;;;;;;;;;13.80;97.60;;;;;;6095843;23;20000;-85
2022/09/30 08:24:19;;;;;;;;;;;13.70;98.40;;;;;;6119127;23;19924;-86
2022/09/30 08:26:46;;;;;;;;;;;13.80;98.00;;;;;;6120255;23;19917;-86
2022/09/30 08:29:13;;;;;;;;;;;13.80;97.80;;;;;;6119518;23;19944;-83
2022/09/30 08:31:50;;;;;;;;;;;13.90;97.80;;;;;;6118236;23;19929;-83
2022/09/30 08:34:18;;;;;;;;;;;14.00;97.60;;;;;;6120002;23;19924;-83
2022/09/30 08:36:45;;;;;;;;;;;14.10;97.40;;;;;;6120009;23;19924;-82
2022/09/30 08:39:12;;;;;;;;;;;14.10;97.00;;;;;;6098893;23;19917;-83
2022/09/30 08:41:50;;;;;;;;;;;14.10;96.90;;;;;;6122742;23;19944;-83
2022/09/30 08:44:29;;;;;;;;;;;14.20;96.70;;;;;;6098393;23;19924;-83
2022/09/30 08:47:01;;;;;;;;;;;14.30;96.40;;;;;;6123214;23;19951;-83
2022/09/30 08:49:31;;;;;;;;;;;14.30;96.50;;;;;;6112862;23;19917;-83
2022/09/30 08:51:59;;;;;;;;;;;14.30;96.40;;;;;;6132260;23;20313;-82
2022/09/30 08:54:29;;;;;;;;;;;14.30;96.30;;;;;;6128019;23;19921;-82
2022/09/30 08:56:56;;;;;;;;;;;14.30;96.50;;;;;;6129188;23;19952;-83
2022/09/30 08:59:22;;;;;;;;;;;14.30;96.00;;;;;;6130832;23;19917;-81
2022/09/30 09:01:52;;;;;;;;;;;14.30;95.80;;;;;;6135238;23;19923;-83
2022/09/30 09:04:19;;;;;;;;;;;14.30;95.60;;;;;;6129005;23;19921;-81
2022/09/30 09:06:58;;;;;;;;;;;14.40;95.70;;;;;;6120381;23;19987;-80
2022/09/30 09:09:34;;;;;;;;;;;14.40;96.30;;;;;;6118265;23;19925;-80
2022/09/30 09:12:21;;;;;;;;;;;14.40;96.30;;;;;;6118994;23;20040;-80
2022/09/30 09:14:51;;;;;;;;;;;14.40;96.10;;;;;;6118695;23;19921;-80
2022/09/30 09:17:25;;;;;;;;;;;14.40;95.80;;;;;;6096057;23;19980;-80
2022/09/30 09:20:19;;;;;;;;;;;14.50;95.80;;;;;;6117943;23;20228;-80
2022/09/30 09:22:47;;;;;;;;;;;14.50;96.40;;;;;;6091339;23;19921;-80
2022/09/30 09:25:15;;;;;;;;;;;14.50;96.10;;;;;;6118600;23;20374;-81
2022/09/30 09:27:42;;;;;;;;;;;14.50;96.10;;;;;;6118564;23;19917;-82
2022/09/30 09:30:18;;;;;;;;;;;14.50;96.80;;;;;;6119162;23;19917;-80
2022/09/30 09:32:48;;;;;;;;;;;14.50;96.60;;;;;;6117755;23;20390;-80
2022/09/30 09:35:18;;;;;;;;;;;14.50;96.20;;;;;;6119096;23;19921;-80
2022/09/30 09:40:56;;;;;;;;;;;14.50;97.20;;;;;;6095723;23;19992;-81
2022/09/30 09:43:29;;;;;;;;;;;14.50;97.80;;;;;;6118988;23;19952;-81
2022/09/30 09:46:08;;;;;;;;;;;14.50;97.90;;;;;;6117718;23;19945;-80
2022/09/30 09:48:36;;;;;;;;;;;14.40;98.40;;;;;;6117831;23;19924;-80
2022/09/30 09:51:09;;;;;;;;;;;14.30;99.10;;;;;;6117820;23;19917;-80
2022/09/30 09:53:57;;;;;;;;;;;14.20;99.90;;;;;;6095302;23;20000;-80
2022/09/30 09:56:32;;;;;;;;;;;14.10;99.80;;;;;;6093698;23;20342;-80
2022/09/30 09:59:06;;;;;;;;;;;14.20;99.00;;;;;;6117890;23;19983;-80
2022/09/30 10:01:33;;;;;;;;;;;14.20;99.80;;;;;;6118813;23;19917;-80
2022/09/30 10:04:10;;;;;;;;;;;14.30;99.70;;;;;;6118559;23;19921;-80
2022/09/30 10:06:47;;;;;;;;;;;14.30;99.60;;;;;;6118201;23;19917;-80
2022/09/30 10:09:22;;;;;;;;;;;14.40;99.40;;;;;;6118511;23;19951;-80
2022/09/30 10:11:49;;;;;;;;;;;14.40;99.00;;;;;;6117634;23;19917;-80
2022/09/30 10:14:20;;;;;;;;;;;14.40;98.20;;;;;;6118612;23;19952;-80
2022/09/30 10:16:47;;;;;;;;;;;14.50;98.40;;;;;;6093510;23;19969;-79
2022/09/30 10:19:20;;;;;;;;;;;14.50;97.90;;;;;;6119468;23;20004;-81
2022/09/30 10:21:46;;;;;;;;;;;14.60;97.50;;;;;;6121115;23;19996;-81
2022/09/30 10:24:33;;;;;;;;;;;14.70;97.70;;;;;;6122199;23;19932;-81
2022/09/30 10:27:00;;;;;;;;;;;14.70;97.60;;;;;;6096980;23;19940;-81
2022/09/30 10:29:32;;;;;;;;;;;14.70;97.20;;;;;;6120785;23;19952;-81
2022/09/30 10:32:00;;;;;;;;;;;14.70;97.00;;;;;;6119396;23;19924;-81
2022/09/30 10:34:27;;;;;;;;;;;14.80;97.00;;;;;;6133054;23;20433;-80
2022/09/30 10:36:54;;;;;;;;;;;14.80;96.40;;;;;;6107864;23;19921;-80
2022/09/30 10:39:48;;;;;;;;;;;14.80;96.40;;;;;;6131371;23;19941;-81
2022/09/30 10:42:16;;;;;;;;;;;14.70;96.10;;;;;;6103822;23;20371;-80
2022/09/30 10:45:01;;;;;;;;;;;14.70;96.50;;;;;;6134207;23;20317;-80
2022/09/30 10:47:28;;;;;;;;;;;14.60;96.50;;;;;;6134867;23;19917;-80
2022/09/30 10:50:05;;;;;;;;;;;14.70;96.40;;;;;;6134393;23;19925;-80
2022/09/30 10:52:52;;;;;;;;;;;14.60;96.50;;;;;;6110324;23;19937;-80
2022/09/30 10:55:19;;;;;;;;;;;14.60;96.90;;;;;;6098985;23;19918;-80
2022/09/30 10:57:47;;;;;;;;;;;14.60;97.20;;;;;;6106040;23;20390;-81
2022/09/30 11:00:17;;;;;;;;;;;14.60;97.40;;;;;;6127282;23;19924;-80
2022/09/30 11:02:50;;;;;;;;;;;14.50;96.40;;;;;;6128881;23;19924;-81
2022/09/30 11:05:27;;;;;;;;;;;14.50;96.40;;;;;;6128657;23;19921;-80
2022/09/30 11:08:00;;;;;;;;;;;14.50;96.70;;;;;;6132762;23;19956;-80
2022/09/30 11:10:33;;;;;;;;;;;14.50;96.40;;;;;;6133790;23;19988;-80
2022/09/30 11:13:02;;;;;;;;;;;14.60;95.80;;;;;;6128490;23;19921;-80
2022/09/30 11:15:31;;;;;;;;;;;14.60;95.90;;;;;;6128047;23;19948;-81
2022/09/30 11:18:00;;;;;;;;;;;14.70;95.00;;;;;;6127668;23;19955;-81
2022/09/30 11:20:30;;;;;;;;;;;14.60;95.30;;;;;;6127669;23;19944;-81
2022/09/30 11:23:01;;;;;;;;;;;14.60;94.30;;;;;;6125150;23;19923;-81
2022/09/30 11:25:41;;;;;;;;;;;14.60;94.70;;;;;;6126141;23;19961;-81
2022/09/30 11:28:26;;;;;;;;;;;14.60;94.50;;;;;;6128124;23;19955;-81
2022/09/30 11:30:53;;;;;;;;;;;14.60;94.90;;;;;;6125653;23;19923;-81
2022/09/30 11:33:38;;;;;;;;;;;14.60;94.50;;;;;;6128118;23;19991;-81
2022/09/30 11:36:07;;;;;;;;;;;14.70;94.40;;;;;;6124924;23;19917;-80
2022/09/30 11:38:43;;;;;;;;;;;14.70;93.90;;;;;;6126232;23;20250;-80
2022/09/30 11:41:30;;;;;;;;;;;14.70;93.80;;;;;;6127070;23;19925;-80
2022/09/30 11:44:15;;;;;;;;;;;14.80;93.90;;;;;;6103319;23;19944;-80
2022/09/30 11:47:01;;;;;;;;;;;14.80;94.20;;;;;;6129991;23;20330;-81
2022/09/30 11:49:31;;;;;;;;;;;14.90;94.30;;;;;;6128841;23;19917;-81
2022/09/30 11:52:16;;;;;;;;;;;14.90;94.20;;;;;;6128544;23;19917;-81
2022/09/30 11:54:55;;;;;;;;;;;14.90;93.40;;;;;;6124874;23;20335;-81
2022/09/30 11:57:28;;;;;;;;;;;14.90;92.90;;;;;;6121965;23;19917;-81
2022/09/30 11:59:57;;;;;;;;;;;14.90;92.90;;;;;;6099476;23;19917;-81
2022/09/30 12:02:25;;;;;;;;;;;14.90;92.60;;;;;;6121152;23;19988;-81
2022/09/30 12:04:56;;;;;;;;;;;15.00;92.50;;;;;;6123189;23;20303;-81
2022/09/30 12:07:31;;;;;;;;;;;14.90;90.70;;;;;;6123494;23;19917;-81
2022/09/30 12:10:00;;;;;;;;;;;14.90;91.10;;;;;;6123543;23;20433;-81
2022/09/30 12:12:26;;;;;;;;;;;14.90;90.30;;;;;;6120125;23;19917;-81
2022/09/30 12:14:56;;;;;;;;;;;14.90;90.10;;;;;;6120049;23;19917;-81
2022/09/30 12:17:35;;;;;;;;;;;15.00;90.80;;;;;;6118389;23;20246;-81
2022/09/30 12:20:24;;;;;;;;;;;15.10;90.80;;;;;;6119457;23;19917;-81
2022/09/30 12:22:57;;;;;;;;;;;15.00;91.00;;;;;;6119392;23;19921;-81
2022/09/30 12:25:28;;;;;;;;;;;15.10;90.20;;;;;;6097245;23;20331;-81
2022/09/30 12:30:16;;;;;;;;;;;15.10;86.10;;;;;;6119042;23;19917;-81
2022/09/30 12:31:00;;;;;;;;;;;15.30;87.60;;;;;;6095858;23;19925;-81
2022/09/30 12:33:39;;;;;;;;;;;15.40;88.00;;;;;;6119671;23;19918;-81
2022/09/30 12:36:06;;;;;;;;;;;15.60;88.10;;;;;;6118903;23;20258;-81
2022/09/30 12:38:48;;;;;;;;;;;15.60;83.10;;;;;;6119494;23;19923;-81
2022/09/30 12:41:53;;;;;;;;;;;15.80;85.40;;;;;;6118723;23;20251;-81
2022/09/30 12:44:47;;;;;;;;;;;15.90;84.80;;;;;;6012839;23;19921;-81
2022/09/30 12:47:18;;;;;;;;;;;15.80;84.30;;;;;;6001839;23;19993;-81
2022/09/30 12:49:45;;;;;;;;;;;15.70;84.80;;;;;;6068347;23;19996;-81
2022/09/30 12:52:14;;;;;;;;;;;15.70;82.80;;;;;;6118624;23;19917;-81
2022/09/30 12:54:47;;;;;;;;;;;15.70;84.60;;;;;;6119384;23;19945;-81
2022/09/30 12:57:17;;;;;;;;;;;15.70;83.40;;;;;;6118773;23;20007;-81
2022/09/30 12:59:51;;;;;;;;;;;15.70;83.60;;;;;;6119551;23;19918;-81
2022/09/30 13:02:41;;;;;;;;;;;15.70;84.10;;;;;;6118674;23;19917;-81
2022/09/30 13:05:25;;;;;;;;;;;15.80;84.00;;;;;;6086789;23;19923;-81
2022/09/30 13:08:04;;;;;;;;;;;15.90;83.40;;;;;;6119634;23;19916;-81
2022/09/30 13:10:37;;;;;;;;;;;16.00;83.30;;;;;;6119204;23;20338;-81
2022/09/30 13:13:13;;;;;;;;;;;16.00;81.70;;;;;;6120003;23;19941;-82
2022/09/30 13:15:41;;;;;;;;;;;15.90;80.80;;;;;;6118971;23;19951;-81
2022/09/30 13:18:20;;;;;;;;;;;15.80;81.10;;;;;;6118741;23;19923;-82
2022/09/30 13:20:53;;;;;;;;;;;15.90;82.40;;;;;;6118310;23;19953;-81
2022/09/30 13:23:36;;;;;;;;;;;15.90;82.70;;;;;;6119589;23;19921;-82
2022/09/30 13:26:06;;;;;;;;;;;15.90;80.60;;;;;;6118738;23;19941;-81
2022/09/30 13:28:37;;;;;;;;;;;15.90;81.30;;;;;;6119131;23;19944;-82
2022/09/30 13:31:11;;;;;;;;;;;15.90;80.20;;;;;;6118499;23;19996;-81
2022/09/30 13:33:45;;;;;;;;;;;15.90;80.30;;;;;;6119018;23;20255;-82
2022/09/30 13:36:17;;;;;;;;;;;16.00;80.20;;;;;;6118933;23;19952;-81
2022/09/30 13:38:44;;;;;;;;;;;16.00;79.70;;;;;;6119193;23;19996;-81
2022/09/30 13:41:17;;;;;;;;;;;16.00;79.60;;;;;;6095383;23;19944;-81
2022/09/30 13:43:52;;;;;;;;;;;16.10;79.80;;;;;;6118866;23;19917;-81
2022/09/30 13:46:34;;;;;;;;;;;16.10;79.30;;;;;;6118239;23;19951;-81
2022/09/30 13:49:12;;;;;;;;;;;16.10;79.00;;;;;;6118485;23;19992;-81
2022/09/30 13:51:40;;;;;;;;;;;16.20;78.70;;;;;;6119136;23;19940;-81
2022/09/30 13:54:16;;;;;;;;;;;16.30;81.40;;;;;;6118210;23;20358;-81
2022/09/30 13:56:43;;;;;;;;;;;16.30;79.30;;;;;;6119299;23;19949;-82
2022/09/30 13:59:27;;;;;;;;;;;16.30;78.90;;;;;;6118108;23;20300;-81
2022/09/30 14:02:17;;;;;;;;;;;16.30;79.70;;;;;;6119497;23;19993;-82
2022/09/30 14:04:50;;;;;;;;;;;16.30;78.90;;;;;;6117979;23;19917;-81
2022/09/30 14:07:26;;;;;;;;;;;16.30;77.70;;;;;;6119641;23;20254;-81
2022/09/30 14:10:12;;;;;;;;;;;16.50;78.70;;;;;;6119038;23;19932;-81
2022/09/30 14:12:39;;;;;;;;;;;16.50;79.70;;;;;;6119329;23;20331;-82
2022/09/30 14:15:09;;;;;;;;;;;16.60;78.50;;;;;;6119732;23;19945;-81
2022/09/30 14:17:38;;;;;;;;;;;16.70;77.70;;;;;;6118202;23;20007;-81
2022/09/30 14:20:05;;;;;;;;;;;16.70;79.30;;;;;;6118094;23;19936;-81
2022/09/30 14:22:34;;;;;;;;;;;16.70;77.60;;;;;;6118706;23;20007;-82
2022/09/30 14:25:01;;;;;;;;;;;16.70;77.00;;;;;;6119962;23;19945;-81
2022/09/30 14:27:31;;;;;;;;;;;16.70;77.50;;;;;;6119185;23;20374;-81
2022/09/30 14:29:58;;;;;;;;;;;16.50;76.40;;;;;;6118395;23;20386;-81
2022/09/30 14:32:29;;;;;;;;;;;16.30;78.30;;;;;;6118420;23;19917;-81
2022/09/30 14:34:57;;;;;;;;;;;16.30;79.80;;;;;;6094620;23;19952;-81
2022/09/30 14:37:29;;;;;;;;;;;16.30;79.90;;;;;;6118345;23;19923;-82
2022/09/30 14:39:55;;;;;;;;;;;16.40;79.90;;;;;;6117636;23;19921;-81
2022/09/30 14:42:30;;;;;;;;;;;16.40;80.40;;;;;;6096344;23;20084;-81
2022/09/30 14:45:03;;;;;;;;;;;16.40;79.90;;;;;;6117831;23;19951;-81